PS53 weather

7-H Skeet Club Inc. Field
Patton, Pennsylvania, United States

Public forecast

Using degrees Fahrenheit for public forecast. Weather courtesy of forecast.io.

Closest aviation weather report (METAR) to 7-H Skeet Club Inc. Field

Closest report is John Murtha Johnstown Cambria County Airport, 22.6 nm (41.8 km) SSW. Retrieved 2020/04/03 08:54 UTC (33 minutes ago):

KJST 030854Z AUTO 31017KT 10SM CLR 01/M08 A2988 RMK AO2 SLP129 T00111083 56006

Closest aviation forecast (TAF) to 7-H Skeet Club Inc. Field

Closest forecast is John Murtha Johnstown Cambria County Airport, 22.6 nm (41.8 km) SSW. Retrieved 2020/04/03 06:51 UTC (3 hours ago):

TAF KJST 030540Z 0306/0406 31016G25KT P6SM SKC FM031500 31015G25KT P6SM SCT050 FM031800 31015G25KT P6SM OVC029 FM040000 33010G17KT P6SM BKN009 OVC018